Time,TemperatureF,DewpointF,PressureIn,WindDirection,WindDirectionDegrees,WindSpeedMPH,WindSpeedGustMPH,Humidity,HourlyPrecipIn,Conditions,Clouds,dailyrainin,SoftwareType,DateUTC
2013-03-20 00:00:00,34.2,18.9,29.91,North,352,4.0,6.0,53,0.00,,---,0.26,VWS V14.01,2013-03-20 04:00:00,
2013-03-20 00:01:00,34.4,18.6,29.91,NW,307,2.0,4.0,52,0.00,,---,0.26,VWS V14.01,2013-03-20 04:01:00,
2013-03-20 00:06:00,35.1,17.4,29.91,NE,41,0.0,3.0,48,0.00,,---,0.00,VWS V14.01,2013-03-20 04:06:00,
2013-03-20 00:11:00,35.3,17.1,29.91,NE,42,4.0,5.0,47,0.00,,---,0.00,VWS V14.01,2013-03-20 04:11:00,
2013-03-20 00:16:00,35.2,17.0,29.91,NNE,12,0.0,5.0,47,0.00,,---,0.00,VWS V14.01,2013-03-20 04:16:00,
2013-03-20 00:21:00,35.0,16.3,29.91,NNE,19,2.0,5.0,46,0.00,,---,0.00,VWS V14.01,2013-03-20 04:21:00,
2013-03-20 00:26:00,35.1,17.4,29.91,NNW,337,1.0,1.0,48,0.00,,---,0.00,VWS V14.01,2013-03-20 04:26:00,
2013-03-20 00:31:00,34.9,17.7,29.91,NE,54,0.0,0.0,49,0.00,,---,0.00,VWS V14.01,2013-03-20 04:31:00,
2013-03-20 00:36:00,34.7,16.5,29.91,NE,53,4.0,6.0,47,0.00,,---,0.00,VWS V14.01,2013-03-20 04:36:00,
2013-03-20 00:41:00,34.7,16.5,29.91,ENE,78,0.0,3.0,47,0.00,,---,0.00,VWS V14.01,2013-03-20 04:41:00,
2013-03-20 00:47:00,34.6,16.5,29.92,SSE,153,3.0,3.0,47,0.00,,---,0.00,VWS V14.01,2013-03-20 04:47:00,
2013-03-20 00:52:00,34.5,16.9,29.92,East,92,2.0,8.0,48,0.00,,---,0.00,VWS V14.01,2013-03-20 04:52:00,
2013-03-20 00:57:00,34.5,17.8,29.92,ENE,63,0.0,3.0,50,0.00,,---,0.00,VWS V14.01,2013-03-20 04:57:00,
2013-03-20 01:02:00,34.4,17.7,29.92,SW,221,2.0,3.0,50,0.00,,---,0.00,VWS V14.01,2013-03-20 05:02:00,
2013-03-20 01:07:00,34.3,18.1,29.92,NE,46,1.0,1.0,51,0.00,,---,0.00,VWS V14.01,2013-03-20 05:07:00,
2013-03-20 01:12:00,34.1,18.3,29.92,SE,140,0.0,1.0,52,0.00,,---,0.00,VWS V14.01,2013-03-20 05:12:00,
2013-03-20 01:17:00,34.0,17.3,29.92,North,359,2.0,2.0,50,0.00,,---,0.00,VWS V14.01,2013-03-20 05:17:00,
2013-03-20 01:22:00,34.0,17.3,29.93,NE,41,2.0,4.0,50,0.00,,---,0.00,VWS V14.01,2013-03-20 05:22:00,
2013-03-20 01:28:00,34.1,17.0,29.93,West,259,0.0,0.0,49,0.00,,---,0.00,VWS V14.01,2013-03-20 05:28:00,
2013-03-20 01:33:00,34.1,16.5,29.93,SE,136,0.0,3.0,48,0.00,,---,0.00,VWS V14.01,2013-03-20 05:33:00,
2013-03-20 01:38:00,33.9,16.8,29.93,ESE,104,1.0,2.0,49,0.00,,---,0.00,VWS V14.01,2013-03-20 05:38:00,
2013-03-20 01:43:00,33.7,15.6,29.94,NNW,333,1.0,5.0,47,0.00,,---,0.00,VWS V14.01,2013-03-20 05:43:00,
2013-03-20 01:48:00,33.7,15.6,29.94,SW,214,1.0,1.0,47,0.00,,---,0.00,VWS V14.01,2013-03-20 05:48:00,
2013-03-20 01:53:00,33.5,16.9,29.94,SW,224,0.0,0.0,50,0.00,,---,0.00,VWS V14.01,2013-03-20 05:53:00,
2013-03-20 01:59:00,33.0,15.0,29.94,NW,304,1.0,6.0,47,0.00,,---,0.00,VWS V14.01,2013-03-20 05:59:00,
2013-03-20 02:04:00,33.1,15.1,29.94,SSW,210,0.0,0.0,47,0.00,,---,0.00,VWS V14.01,2013-03-20 06:04:00,
2013-03-20 02:09:00,33.1,15.1,29.94,NNW,337,0.0,1.0,47,0.00,,---,0.00,VWS V14.01,2013-03-20 06:09:00,
2013-03-20 02:14:00,32.7,15.7,29.95,WSW,248,0.0,1.0,49,0.00,,---,0.00,VWS V14.01,2013-03-20 06:14:00,
2013-03-20 02:19:00,32.7,15.2,29.95,WNW,288,0.0,0.0,48,0.00,,---,0.00,VWS V14.01,2013-03-20 06:19:00,
2013-03-20 02:24:00,32.4,15.4,29.95,WNW,287,1.0,2.0,49,0.00,,---,0.00,VWS V14.01,2013-03-20 06:24:00,
2013-03-20 02:29:00,32.3,15.3,29.95,NW,315,0.0,0.0,49,0.00,,---,0.00,VWS V14.01,2013-03-20 06:29:00,
2013-03-20 02:34:00,31.9,15.4,29.95,NE,49,1.0,1.0,50,0.00,,---,0.00,VWS V14.01,2013-03-20 06:34:00,
2013-03-20 02:39:00,31.5,15.5,29.95,West,263,0.0,0.0,51,0.00,,---,0.00,VWS V14.01,2013-03-20 06:39:00,
2013-03-20 02:44:00,31.3,15.7,29.95,WNW,285,0.0,2.0,52,0.00,,---,0.00,VWS V14.01,2013-03-20 06:44:00,
2013-03-20 02:49:00,31.3,16.2,29.95,WNW,284,0.0,0.0,53,0.00,,---,0.00,VWS V14.01,2013-03-20 06:49:00,
2013-03-20 02:54:00,31.3,15.7,29.95,West,269,0.0,0.0,52,0.00,,---,0.00,VWS V14.01,2013-03-20 06:54:00,
2013-03-20 02:59:00,31.7,16.1,29.95,ESE,108,0.0,3.0,52,0.00,,---,0.00,VWS V14.01,2013-03-20 06:59:00,
2013-03-20 03:04:00,31.9,16.7,29.95,NNW,335,1.0,1.0,53,0.00,,---,0.00,VWS V14.01,2013-03-20 07:04:00,
2013-03-20 03:09:00,31.8,16.6,29.95,NNW,347,1.0,1.0,53,0.00,,---,0.00,VWS V14.01,2013-03-20 07:09:00,
2013-03-20 03:14:00,31.6,15.6,29.95,WNW,288,0.0,0.0,51,0.00,,---,0.00,VWS V14.01,2013-03-20 07:14:00,
2013-03-20 03:19:00,31.9,15.8,29.95,NNW,335,0.0,0.0,51,0.00,,---,0.00,VWS V14.01,2013-03-20 07:19:00,
2013-03-20 03:25:00,31.8,15.8,29.95,NNW,333,0.0,0.0,51,0.00,,---,0.00,VWS V14.01,2013-03-20 07:25:00,
2013-03-20 03:30:00,31.7,16.1,29.95,ENE,71,1.0,1.0,52,0.00,,---,0.00,VWS V14.01,2013-03-20 07:30:00,
2013-03-20 03:35:00,31.3,15.3,29.94,ESE,113,0.0,1.0,51,0.00,,---,0.00,VWS V14.01,2013-03-20 07:35:00,
2013-03-20 03:40:00,31.2,15.6,29.95,NNE,32,0.0,1.0,52,0.00,,---,0.00,VWS V14.01,2013-03-20 07:40:00,
2013-03-20 03:45:00,30.9,15.4,29.94,West,270,0.0,0.0,52,0.00,,---,0.00,VWS V14.01,2013-03-20 07:45:00,
2013-03-20 03:50:00,30.8,15.3,29.94,NNW,346,0.0,1.0,52,0.00,,---,0.00,VWS V14.01,2013-03-20 07:50:00,
2013-03-20 03:55:00,30.9,15.4,29.94,WNW,297,1.0,1.0,52,0.00,,---,0.00,VWS V14.01,2013-03-20 07:55:00,
2013-03-20 04:01:00,31.2,15.6,29.94,WNW,290,4.0,5.0,52,0.00,,---,0.00,VWS V14.01,2013-03-20 08:01:00,
2013-03-20 04:06:00,31.4,14.9,29.94,NE,37,0.0,1.0,50,0.00,,---,0.00,VWS V14.01,2013-03-20 08:06:00,
2013-03-20 04:11:00,31.3,14.4,29.94,NW,319,1.0,1.0,49,0.00,,---,0.00,VWS V14.01,2013-03-20 08:11:00,
2013-03-20 04:16:00,31.3,14.4,29.94,NW,316,1.0,6.0,49,0.00,,---,0.00,VWS V14.01,2013-03-20 08:16:00,
2013-03-20 04:21:00,31.6,15.1,29.94,North,1,0.0,1.0,50,0.00,,---,0.00,VWS V14.01,2013-03-20 08:21:00,
2013-03-20 04:26:00,31.3,14.4,29.94,NW,319,1.0,3.0,49,0.00,,---,0.00,VWS V14.01,2013-03-20 08:26:00,
2013-03-20 04:31:00,31.1,15.1,29.94,ESE,123,0.0,0.0,51,0.00,,---,0.00,VWS V14.01,2013-03-20 08:31:00,
2013-03-20 04:36:00,31.0,15.0,29.94,West,263,0.0,0.0,51,0.00,,---,0.00,VWS V14.01,2013-03-20 08:36:00,
2013-03-20 04:41:00,30.9,14.9,29.95,ENE,63,0.0,0.0,51,0.00,,---,0.00,VWS V14.01,2013-03-20 08:41:00,
2013-03-20 04:46:00,30.6,14.6,29.94,WNW,291,1.0,1.0,51,0.00,,---,0.00,VWS V14.01,2013-03-20 08:46:00,
2013-03-20 04:51:00,30.6,15.1,29.94,ENE,69,0.0,0.0,52,0.00,,---,0.00,VWS V14.01,2013-03-20 08:51:00,
2013-03-20 04:56:00,30.6,15.1,29.95,WSW,255,0.0,0.0,52,0.00,,---,0.00,VWS V14.01,2013-03-20 08:56:00,
2013-03-20 05:02:00,30.4,15.3,29.95,WNW,298,0.0,0.0,53,0.00,,---,0.00,VWS V14.01,2013-03-20 09:02:00,
2013-03-20 05:07:00,30.0,14.5,29.95,SE,131,0.0,1.0,52,0.00,,---,0.00,VWS V14.01,2013-03-20 09:07:00,
2013-03-20 05:12:00,29.7,15.1,29.95,WNW,302,0.0,0.0,54,0.00,,---,0.00,VWS V14.01,2013-03-20 09:12:00,
2013-03-20 05:17:00,29.6,15.0,29.95,NNE,25,0.0,1.0,54,0.00,,---,0.00,VWS V14.01,2013-03-20 09:17:00,
2013-03-20 05:22:00,29.6,15.4,29.95,NNW,343,0.0,1.0,55,0.00,,---,0.00,VWS V14.01,2013-03-20 09:22:00,
2013-03-20 05:27:00,29.4,14.8,29.95,NNW,332,1.0,3.0,54,0.00,,---,0.00,VWS V14.01,2013-03-20 09:27:00,
2013-03-20 05:32:00,29.4,15.2,29.95,West,263,4.0,4.0,55,0.00,,---,0.00,VWS V14.01,2013-03-20 09:32:00,
2013-03-20 05:37:00,29.6,15.0,29.95,NNW,347,0.0,1.0,54,0.00,,---,0.00,VWS V14.01,2013-03-20 09:37:00,
2013-03-20 05:43:00,29.6,15.4,29.95,WNW,296,0.0,0.0,55,0.00,,---,0.00,VWS V14.01,2013-03-20 09:43:00,
2013-03-20 05:48:00,29.6,15.0,29.95,NE,46,0.0,0.0,54,0.00,,---,0.00,VWS V14.01,2013-03-20 09:48:00,
2013-03-20 05:53:00,29.7,15.1,29.95,WSW,249,2.0,4.0,54,0.00,,---,0.00,VWS V14.01,2013-03-20 09:53:00,
2013-03-20 05:58:00,29.7,15.1,29.95,NNW,341,0.0,0.0,54,0.00,,---,0.00,VWS V14.01,2013-03-20 09:58:00,
2013-03-20 06:03:00,29.5,14.9,29.95,WNW,285,0.0,0.0,54,0.00,,---,0.00,VWS V14.01,2013-03-20 10:03:00,
2013-03-20 06:08:00,29.6,14.6,29.95,NNW,338,0.0,2.0,53,0.00,,---,0.00,VWS V14.01,2013-03-20 10:08:00,
2013-03-20 06:13:00,29.8,14.8,29.96,ESE,122,0.0,1.0,53,0.00,,---,0.00,VWS V14.01,2013-03-20 10:13:00,
2013-03-20 06:19:00,29.6,14.6,29.96,ESE,122,0.0,0.0,53,0.00,,---,0.00,VWS V14.01,2013-03-20 10:19:00,
2013-03-20 06:24:00,29.4,14.0,29.96,SW,235,0.0,0.0,52,0.00,,---,0.00,VWS V14.01,2013-03-20 10:24:00,
2013-03-20 06:29:00,29.3,14.3,29.96,SSW,203,0.0,0.0,53,0.00,,---,0.00,VWS V14.01,2013-03-20 10:29:00,
2013-03-20 06:34:00,29.1,13.7,29.96,SSW,203,0.0,0.0,52,0.00,,---,0.00,VWS V14.01,2013-03-20 10:34:00,
2013-03-20 06:39:00,29.0,14.0,29.96,SSW,203,0.0,0.0,53,0.00,,---,0.00,VWS V14.01,2013-03-20 10:39:00,
2013-03-20 06:44:00,28.9,13.9,29.96,SSW,203,0.0,0.0,53,0.00,,---,0.00,VWS V14.01,2013-03-20 10:44:00,
2013-03-20 06:49:00,28.8,14.3,29.96,WNW,290,0.0,0.0,54,0.00,,---,0.00,VWS V14.01,2013-03-20 10:49:00,
2013-03-20 06:55:00,28.7,13.8,29.97,West,260,1.0,1.0,53,0.00,,---,0.00,VWS V14.01,2013-03-20 10:55:00,
2013-03-20 07:00:00,28.9,14.4,29.96,WNW,284,1.0,1.0,54,0.00,,---,0.00,VWS V14.01,2013-03-20 11:00:00,
2013-03-20 07:05:00,28.9,13.9,29.96,West,270,0.0,0.0,53,0.00,,---,0.00,VWS V14.01,2013-03-20 11:05:00,
2013-03-20 07:10:00,28.8,13.8,29.96,SE,133,0.0,0.0,53,0.00,,---,0.00,VWS V14.01,2013-03-20 11:10:00,
2013-03-20 07:15:00,28.7,14.2,29.96,West,278,0.0,1.0,54,0.00,,---,0.00,VWS V14.01,2013-03-20 11:15:00,
2013-03-20 07:20:00,28.7,14.2,29.96,NNW,335,1.0,1.0,54,0.00,,---,0.00,VWS V14.01,2013-03-20 11:20:00,
2013-03-20 07:25:00,28.7,14.6,29.96,WSW,243,0.0,2.0,55,0.00,,---,0.00,VWS V14.01,2013-03-20 11:25:00,
2013-03-20 07:31:00,28.8,15.1,29.96,WSW,243,0.0,0.0,56,0.00,,---,0.00,VWS V14.01,2013-03-20 11:31:00,
2013-03-20 07:36:00,28.6,14.1,29.96,West,280,0.0,0.0,54,0.00,,---,0.00,VWS V14.01,2013-03-20 11:36:00,
2013-03-20 07:41:00,28.9,14.8,29.96,NE,46,0.0,1.0,55,0.00,,---,0.00,VWS V14.01,2013-03-20 11:41:00,
2013-03-20 07:46:00,29.1,15.0,29.96,WNW,288,1.0,1.0,55,0.00,,---,0.00,VWS V14.01,2013-03-20 11:46:00,
2013-03-20 07:51:00,29.7,15.1,29.96,North,11,0.0,0.0,54,0.00,,---,0.00,VWS V14.01,2013-03-20 11:51:00,
2013-03-20 07:56:00,30.0,15.4,29.97,NNE,18,0.0,0.0,54,0.00,,---,0.00,VWS V14.01,2013-03-20 11:56:00,
2013-03-20 08:02:00,30.2,15.1,29.97,NNW,333,0.0,2.0,53,0.00,,---,0.00,VWS V14.01,2013-03-20 12:02:00,
2013-03-20 08:07:00,30.5,15.0,29.97,SW,226,0.0,1.0,52,0.00,,---,0.00,VWS V14.01,2013-03-20 12:07:00,
2013-03-20 08:12:00,30.8,15.7,29.97,NW,316,0.0,0.0,53,0.00,,---,0.00,VWS V14.01,2013-03-20 12:12:00,
2013-03-20 08:17:00,31.0,15.9,29.97,West,281,0.0,0.0,53,0.00,,---,0.00,VWS V14.01,2013-03-20 12:17:00,
2013-03-20 08:22:00,31.3,16.2,29.97,North,11,0.0,1.0,53,0.00,,---,0.00,VWS V14.01,2013-03-20 12:22:00,
2013-03-20 08:27:00,31.8,15.3,29.97,ENE,60,0.0,0.0,50,0.00,,---,0.00,VWS V14.01,2013-03-20 12:27:00,
2013-03-20 08:32:00,32.5,15.9,29.97,North,352,1.0,1.0,50,0.00,,---,0.00,VWS V14.01,2013-03-20 12:32:00,
2013-03-20 08:37:00,32.7,16.1,29.97,North,11,0.0,1.0,50,0.00,,---,0.00,VWS V14.01,2013-03-20 12:37:00,
2013-03-20 08:43:00,33.0,15.9,29.97,NE,56,1.0,1.0,49,0.00,,---,0.00,VWS V14.01,2013-03-20 12:43:00,
2013-03-20 08:48:00,33.5,15.9,29.97,West,277,1.0,1.0,48,0.00,,---,0.00,VWS V14.01,2013-03-20 12:48:00,
2013-03-20 08:53:00,33.7,16.1,29.96,WNW,283,0.0,1.0,48,0.00,,---,0.00,VWS V14.01,2013-03-20 12:53:00,
2013-03-20 08:58:00,34.0,16.4,29.96,SSW,193,0.0,2.0,48,0.00,,---,0.00,VWS V14.01,2013-03-20 12:58:00,
2013-03-20 09:03:00,34.1,16.0,29.96,SW,218,0.0,1.0,47,0.00,,---,0.00,VWS V14.01,2013-03-20 13:03:00,
2013-03-20 09:08:00,34.4,16.3,29.96,NE,47,1.0,5.0,47,0.00,,---,0.00,VWS V14.01,2013-03-20 13:08:00,
2013-03-20 09:13:00,34.8,16.1,29.96,NW,319,2.0,8.0,46,0.00,,---,0.00,VWS V14.01,2013-03-20 13:13:00,
2013-03-20 09:18:00,35.2,17.0,29.96,North,350,2.0,2.0,47,0.00,,---,0.00,VWS V14.01,2013-03-20 13:18:00,
2013-03-20 09:23:00,35.8,17.1,29.97,WNW,299,1.0,4.0,46,0.00,,---,0.00,VWS V14.01,2013-03-20 13:23:00,
2013-03-20 09:28:00,36.1,15.8,29.97,SW,227,2.0,3.0,43,0.00,,---,0.00,VWS V14.01,2013-03-20 13:28:00,
2013-03-20 09:33:00,36.6,15.7,29.97,WNW,298,0.0,0.0,42,0.00,,---,0.00,VWS V14.01,2013-03-20 13:33:00,
2013-03-20 09:39:00,37.0,16.1,29.97,SW,232,0.0,1.0,42,0.00,,---,0.00,VWS V14.01,2013-03-20 13:39:00,
2013-03-20 09:44:00,37.6,17.1,29.98,NNE,18,2.0,4.0,43,0.00,,---,0.00,VWS V14.01,2013-03-20 13:44:00,
2013-03-20 09:49:00,37.8,15.7,29.97,SSE,158,0.0,2.0,40,0.00,,---,0.00,VWS V14.01,2013-03-20 13:49:00,
2013-03-20 09:54:00,38.1,15.4,29.97,East,96,2.0,2.0,39,0.00,,---,0.00,VWS V14.01,2013-03-20 13:54:00,
2013-03-20 09:59:00,38.5,15.1,29.98,ESE,121,1.0,4.0,38,0.00,,---,0.00,VWS V14.01,2013-03-20 13:59:00,
2013-03-20 10:04:00,39.1,15.6,29.98,WNW,291,0.0,1.0,38,0.00,,---,0.00,VWS V14.01,2013-03-20 14:04:00,
2013-03-20 10:09:00,39.1,15.6,29.97,West,271,1.0,4.0,38,0.00,,---,0.00,VWS V14.01,2013-03-20 14:09:00,
2013-03-20 10:14:00,39.3,15.2,29.97,NNE,33,3.0,4.0,37,0.00,,---,0.00,VWS V14.01,2013-03-20 14:14:00,
2013-03-20 10:19:00,39.5,14.8,29.98,WNW,285,1.0,6.0,36,0.00,,---,0.00,VWS V14.01,2013-03-20 14:19:00,
2013-03-20 10:25:00,39.4,14.7,29.97,West,267,3.0,6.0,36,0.00,,---,0.00,VWS V14.01,2013-03-20 14:25:00,
2013-03-20 10:30:00,39.6,15.5,29.97,WNW,301,4.0,4.0,37,0.00,,---,0.00,VWS V14.01,2013-03-20 14:30:00,
2013-03-20 10:35:00,39.8,14.4,29.97,North,11,1.0,1.0,35,0.00,,---,0.00,VWS V14.01,2013-03-20 14:35:00,
2013-03-20 10:40:00,40.4,14.9,29.97,NE,41,2.0,5.0,35,0.00,,---,0.00,VWS V14.01,2013-03-20 14:40:00,
2013-03-20 10:45:00,40.6,15.1,29.97,NNE,27,1.0,2.0,35,0.00,,---,0.00,VWS V14.01,2013-03-20 14:45:00,
2013-03-20 10:50:00,40.6,14.4,29.97,West,276,0.0,4.0,34,0.00,,---,0.00,VWS V14.01,2013-03-20 14:50:00,
2013-03-20 10:55:00,40.7,14.5,29.97,WNW,285,2.0,4.0,34,0.00,,---,0.00,VWS V14.01,2013-03-20 14:55:00,
2013-03-20 11:01:00,40.7,14.5,29.96,ESE,106,1.0,3.0,34,0.00,,---,0.00,VWS V14.01,2013-03-20 15:01:00,
2013-03-20 11:06:00,40.9,15.4,29.96,SW,236,2.0,4.0,35,0.00,,---,0.00,VWS V14.01,2013-03-20 15:06:00,
2013-03-20 11:11:00,41.1,15.6,29.96,WSW,243,1.0,4.0,35,0.00,,---,0.00,VWS V14.01,2013-03-20 15:11:00,
2013-03-20 11:16:00,41.4,15.8,29.95,WNW,293,2.0,3.0,35,0.00,,---,0.00,VWS V14.01,2013-03-20 15:16:00,
2013-03-20 11:21:00,41.9,14.9,29.95,NW,321,1.0,6.0,33,0.00,,---,0.00,VWS V14.01,2013-03-20 15:21:00,
2013-03-20 11:26:00,42.2,16.5,29.95,WSW,243,4.0,4.0,35,0.00,,---,0.00,VWS V14.01,2013-03-20 15:26:00,
2013-03-20 11:32:00,42.6,15.5,29.95,NNE,27,0.0,0.0,33,0.00,,---,0.00,VWS V14.01,2013-03-20 15:32:00,
2013-03-20 11:37:00,42.7,16.3,29.94,NNE,22,2.0,2.0,34,0.00,,---,0.00,VWS V14.01,2013-03-20 15:37:00,
2013-03-20 11:42:00,42.9,15.8,29.94,NNW,347,0.0,2.0,33,0.00,,---,0.00,VWS V14.01,2013-03-20 15:42:00,
2013-03-20 11:47:00,43.1,15.3,29.94,North,7,0.0,4.0,32,0.00,,---,0.00,VWS V14.01,2013-03-20 15:47:00,
2013-03-20 11:52:00,43.4,16.2,29.94,SSE,162,1.0,3.0,33,0.00,,---,0.00,VWS V14.01,2013-03-20 15:52:00,
2013-03-20 11:57:00,43.5,14.9,29.94,NNW,333,2.0,5.0,31,0.00,,---,0.00,VWS V14.01,2013-03-20 15:57:00,
2013-03-20 12:02:00,43.8,17.3,29.94,SW,221,1.0,1.0,34,0.00,,---,0.00,VWS V14.01,2013-03-20 16:02:00,
2013-03-20 12:07:00,44.3,15.6,29.94,NNE,16,3.0,5.0,31,0.00,,---,0.00,VWS V14.01,2013-03-20 16:07:00,
2013-03-20 12:12:00,43.7,16.5,29.93,West,274,0.0,1.0,33,0.00,,---,0.00,VWS V14.01,2013-03-20 16:12:00,
2013-03-20 12:17:00,43.9,15.2,29.93,East,96,0.0,2.0,31,0.00,,---,0.00,VWS V14.01,2013-03-20 16:17:00,
2013-03-20 12:23:00,44.8,18.2,29.93,WNW,298,1.0,2.0,34,0.00,,---,0.00,VWS V14.01,2013-03-20 16:23:00,
2013-03-20 12:28:00,44.7,15.9,29.93,West,274,4.0,4.0,31,0.00,,---,0.00,VWS V14.01,2013-03-20 16:28:00,
2013-03-20 12:33:00,43.8,15.9,29.92,NE,50,2.0,2.0,32,0.00,,---,0.00,VWS V14.01,2013-03-20 16:33:00,
2013-03-20 12:38:00,43.9,15.2,29.92,ESE,110,1.0,2.0,31,0.00,,---,0.00,VWS V14.01,2013-03-20 16:38:00,
2013-03-20 12:43:00,44.7,16.7,29.92,SSW,207,0.0,2.0,32,0.00,,---,0.00,VWS V14.01,2013-03-20 16:43:00,
2013-03-20 12:49:00,45.1,15.5,29.92,NNW,328,0.0,0.0,30,0.00,,---,0.00,VWS V14.01,2013-03-20 16:49:00,
2013-03-20 12:54:00,45.3,17.9,29.91,SSE,152,0.0,1.0,33,0.00,,---,0.00,VWS V14.01,2013-03-20 16:54:00,
2013-03-20 12:59:00,45.5,15.9,29.91,NE,54,2.0,2.0,30,0.00,,---,0.00,VWS V14.01,2013-03-20 16:59:00,
2013-03-20 13:04:00,45.4,15.8,29.91,NNE,19,3.0,4.0,30,0.00,,---,0.00,VWS V14.01,2013-03-20 17:04:00,
2013-03-20 13:09:00,45.2,15.6,29.90,SSW,195,1.0,4.0,30,0.00,,---,0.00,VWS V14.01,2013-03-20 17:09:00,
2013-03-20 13:14:00,44.9,15.4,29.90,NNW,336,3.0,4.0,30,0.00,,---,0.00,VWS V14.01,2013-03-20 17:14:00,
2013-03-20 13:19:00,44.9,15.4,29.90,ESE,118,0.0,4.0,30,0.00,,---,0.00,VWS V14.01,2013-03-20 17:19:00,
2013-03-20 13:24:00,45.0,16.2,29.90,NNE,12,3.0,3.0,31,0.00,,---,0.00,VWS V14.01,2013-03-20 17:24:00,
2013-03-20 13:29:00,45.1,15.5,29.89,NE,41,3.0,4.0,30,0.00,,---,0.00,VWS V14.01,2013-03-20 17:29:00,
2013-03-20 13:34:00,45.1,16.3,29.89,NW,310,3.0,5.0,31,0.00,,---,0.00,VWS V14.01,2013-03-20 17:34:00,
2013-03-20 13:39:00,45.6,16.7,29.89,WNW,285,2.0,5.0,31,0.00,,---,0.00,VWS V14.01,2013-03-20 17:39:00,
2013-03-20 13:44:00,45.7,16.1,29.88,NE,34,2.0,6.0,30,0.00,,---,0.00,VWS V14.01,2013-03-20 17:44:00,
2013-03-20 13:49:00,46.1,14.8,29.88,SSW,200,1.0,1.0,28,0.00,,---,0.00,VWS V14.01,2013-03-20 17:49:00,
2013-03-20 13:54:00,46.5,15.2,29.87,South,191,0.0,7.0,28,0.00,,---,0.00,VWS V14.01,2013-03-20 17:54:00,
2013-03-20 13:59:00,46.4,15.1,29.87,NNW,341,2.0,4.0,28,0.00,,---,0.00,VWS V14.01,2013-03-20 17:59:00,
2013-03-20 14:04:00,46.7,14.5,29.87,ENE,60,5.0,5.0,27,0.00,,---,0.00,VWS V14.01,2013-03-20 18:04:00,
2013-03-20 14:09:00,46.2,14.9,29.87,SW,229,0.0,5.0,28,0.00,,---,0.00,VWS V14.01,2013-03-20 18:09:00,
2013-03-20 14:14:00,46.2,15.7,29.86,WNW,297,6.0,7.0,29,0.00,,---,0.00,VWS V14.01,2013-03-20 18:14:00,
2013-03-20 14:19:00,46.3,16.6,29.86,SW,221,3.0,3.0,30,0.00,,---,0.00,VWS V14.01,2013-03-20 18:19:00,
2013-03-20 14:24:00,46.7,16.1,29.85,ENE,68,6.0,9.0,29,0.00,,---,0.00,VWS V14.01,2013-03-20 18:24:00,
2013-03-20 14:29:00,46.5,15.2,29.85,WNW,300,6.0,6.0,28,0.00,,---,0.00,VWS V14.01,2013-03-20 18:29:00,
2013-03-20 14:35:00,46.7,15.3,29.85,NE,44,1.0,2.0,28,0.00,,---,0.00,VWS V14.01,2013-03-20 18:35:00,
2013-03-20 14:40:00,46.7,15.3,29.84,ENE,77,1.0,1.0,28,0.00,,---,0.00,VWS V14.01,2013-03-20 18:40:00,
2013-03-20 14:45:00,46.8,15.4,29.84,NW,308,3.0,11.0,28,0.00,,---,0.00,VWS V14.01,2013-03-20 18:45:00,
2013-03-20 14:50:00,46.7,15.3,29.83,WSW,248,4.0,4.0,28,0.00,,---,0.00,VWS V14.01,2013-03-20 18:50:00,
2013-03-20 14:55:00,47.1,14.9,29.83,SW,234,0.0,5.0,27,0.00,,---,0.00,VWS V14.01,2013-03-20 18:55:00,
2013-03-20 15:00:00,47.2,16.6,29.83,SE,146,0.0,1.0,29,0.00,,---,0.00,VWS V14.01,2013-03-20 19:00:00,
2013-03-20 15:05:00,47.2,14.1,29.82,NE,44,2.0,5.0,26,0.00,,---,0.00,VWS V14.01,2013-03-20 19:05:00,
2013-03-20 15:10:00,47.4,15.1,29.82,ENE,57,4.0,5.0,27,0.00,,---,0.00,VWS V14.01,2013-03-20 19:10:00,
2013-03-20 15:15:00,47.6,14.4,29.82,SW,235,1.0,6.0,26,0.00,,---,0.00,VWS V14.01,2013-03-20 19:15:00,
2013-03-20 15:21:00,47.3,14.2,29.82,WSW,253,0.0,1.0,26,0.00,,---,0.00,VWS V14.01,2013-03-20 19:21:00,
2013-03-20 15:26:00,47.0,13.9,29.81,NNE,13,2.0,6.0,26,0.00,,---,0.00,VWS V14.01,2013-03-20 19:26:00,
2013-03-20 15:31:00,47.6,15.3,29.81,ENE,64,2.0,2.0,27,0.00,,---,0.00,VWS V14.01,2013-03-20 19:31:00,
2013-03-20 15:36:00,48.4,16.0,29.81,ESE,115,3.0,3.0,27,0.00,,---,0.00,VWS V14.01,2013-03-20 19:36:00,
2013-03-20 15:41:00,48.5,12.4,29.80,NNE,30,0.0,5.0,23,0.00,,---,0.00,VWS V14.01,2013-03-20 19:41:00,
2013-03-20 15:46:00,47.9,12.9,29.80,West,281,0.0,9.0,24,0.00,,---,0.00,VWS V14.01,2013-03-20 19:46:00,
2013-03-20 15:52:00,47.9,12.9,29.80,WNW,301,3.0,9.0,24,0.00,,---,0.00,VWS V14.01,2013-03-20 19:52:00,
2013-03-20 15:57:00,48.3,14.1,29.80,NNW,339,1.0,3.0,25,0.00,,---,0.00,VWS V14.01,2013-03-20 19:57:00,
2013-03-20 16:02:00,47.9,12.9,29.80,NE,46,1.0,1.0,24,0.00,,---,0.00,VWS V14.01,2013-03-20 20:02:00,
2013-03-20 16:07:00,47.9,14.7,29.80,NW,305,4.0,8.0,26,0.00,,---,0.00,VWS V14.01,2013-03-20 20:07:00,
2013-03-20 16:12:00,47.7,12.7,29.80,North,5,3.0,4.0,24,0.00,,---,0.00,VWS V14.01,2013-03-20 20:12:00,
2013-03-20 16:17:00,47.2,13.2,29.79,SW,229,1.0,5.0,25,0.00,,---,0.00,VWS V14.01,2013-03-20 20:17:00,
2013-03-20 16:22:00,47.1,14.0,29.80,NW,315,2.0,2.0,26,0.00,,---,0.00,VWS V14.01,2013-03-20 20:22:00,
2013-03-20 16:27:00,47.7,14.5,29.79,SSE,156,0.0,2.0,26,0.00,,---,0.00,VWS V14.01,2013-03-20 20:27:00,
2013-03-20 16:32:00,48.0,13.9,29.79,NW,308,1.0,4.0,25,0.00,,---,0.00,VWS V14.01,2013-03-20 20:32:00,
2013-03-20 16:37:00,47.6,13.5,29.79,SSE,148,0.0,9.0,25,0.00,,---,0.00,VWS V14.01,2013-03-20 20:37:00,
2013-03-20 16:42:00,47.4,13.4,29.79,WSW,249,2.0,2.0,25,0.00,,---,0.00,VWS V14.01,2013-03-20 20:42:00,
2013-03-20 16:47:00,47.2,14.1,29.78,ESE,105,0.0,0.0,26,0.00,,---,0.00,VWS V14.01,2013-03-20 20:47:00,
2013-03-20 16:53:00,47.1,13.1,29.78,WSW,250,0.0,2.0,25,0.00,,---,0.00,VWS V14.01,2013-03-20 20:53:00,
2013-03-20 16:58:00,47.0,13.9,29.78,SW,236,0.0,1.0,26,0.00,,---,0.00,VWS V14.01,2013-03-20 20:58:00,
2013-03-20 17:03:00,46.9,13.8,29.78,NW,304,3.0,3.0,26,0.00,,---,0.00,VWS V14.01,2013-03-20 21:03:00,
2013-03-20 17:08:00,46.9,13.8,29.78,East,85,1.0,3.0,26,0.00,,---,0.00,VWS V14.01,2013-03-20 21:08:00,
2013-03-20 17:13:00,46.6,12.7,29.78,SSW,200,0.0,6.0,25,0.00,,---,0.00,VWS V14.01,2013-03-20 21:13:00,
2013-03-20 17:18:00,46.4,14.2,29.78,NNE,17,2.0,4.0,27,0.00,,---,0.00,VWS V14.01,2013-03-20 21:18:00,
2013-03-20 17:23:00,46.4,13.4,29.78,NE,53,0.0,2.0,26,0.00,,---,0.00,VWS V14.01,2013-03-20 21:23:00,
2013-03-20 17:29:00,46.3,13.3,29.78,North,5,1.0,3.0,26,0.00,,---,0.00,VWS V14.01,2013-03-20 21:29:00,
2013-03-20 17:34:00,46.1,14.0,29.78,NNW,337,1.0,2.0,27,0.00,,---,0.00,VWS V14.01,2013-03-20 21:34:00,
2013-03-20 17:39:00,46.1,14.8,29.78,SSE,162,0.0,0.0,28,0.00,,---,0.00,VWS V14.01,2013-03-20 21:39:00,
2013-03-20 17:44:00,46.0,14.7,29.77,NE,49,0.0,3.0,28,0.00,,---,0.00,VWS V14.01,2013-03-20 21:44:00,
2013-03-20 17:49:00,46.0,13.9,29.77,WSW,251,0.0,0.0,27,0.00,,---,0.00,VWS V14.01,2013-03-20 21:49:00,
2013-03-20 17:54:00,46.0,14.7,29.77,NE,44,0.0,1.0,28,0.00,,---,0.00,VWS V14.01,2013-03-20 21:54:00,
2013-03-20 17:59:00,46.0,14.7,29.77,NE,47,5.0,5.0,28,0.00,,---,0.00,VWS V14.01,2013-03-20 21:59:00,
2013-03-20 18:04:00,45.9,15.4,29.77,NNE,32,0.0,1.0,29,0.00,,---,0.00,VWS V14.01,2013-03-20 22:04:00,
2013-03-20 18:09:00,45.7,13.6,29.77,ENE,72,4.0,5.0,27,0.00,,---,0.00,VWS V14.01,2013-03-20 22:09:00,
2013-03-20 18:15:00,45.5,15.1,29.77,SW,233,2.0,3.0,29,0.00,,---,0.00,VWS V14.01,2013-03-20 22:15:00,
2013-03-20 18:20:00,45.3,14.9,29.77,North,359,0.0,1.0,29,0.00,,---,0.00,VWS V14.01,2013-03-20 22:20:00,
2013-03-20 18:25:00,45.2,14.9,29.77,WNW,291,1.0,1.0,29,0.00,,---,0.00,VWS V14.01,2013-03-20 22:25:00,
2013-03-20 18:30:00,45.1,14.8,29.77,WSW,252,0.0,0.0,29,0.00,,---,0.00,VWS V14.01,2013-03-20 22:30:00,
2013-03-20 18:35:00,44.9,15.4,29.77,North,356,1.0,3.0,30,0.00,,---,0.00,VWS V14.01,2013-03-20 22:35:00,
2013-03-20 18:40:00,44.7,15.2,29.77,West,262,0.0,0.0,30,0.00,,---,0.00,VWS V14.01,2013-03-20 22:40:00,
2013-03-20 18:45:00,44.6,16.6,29.77,NE,46,0.0,1.0,32,0.00,,---,0.00,VWS V14.01,2013-03-20 22:45:00,
2013-03-20 18:50:00,44.3,16.3,29.77,NNE,22,0.0,3.0,32,0.00,,---,0.00,VWS V14.01,2013-03-20 22:50:00,
2013-03-20 18:55:00,44.2,15.5,29.77,WSW,240,0.0,1.0,31,0.00,,---,0.00,VWS V14.01,2013-03-20 22:55:00,
2013-03-20 19:00:00,44.0,15.3,29.77,WSW,256,0.0,3.0,31,0.00,,---,0.00,VWS V14.01,2013-03-20 23:00:00,
2013-03-20 19:05:00,43.7,16.5,29.77,WSW,257,0.0,0.0,33,0.00,,---,0.00,VWS V14.01,2013-03-20 23:05:00,
2013-03-20 19:10:00,43.4,16.2,29.77,ESE,105,0.0,3.0,33,0.00,,---,0.00,VWS V14.01,2013-03-20 23:10:00,
2013-03-20 19:15:00,43.2,16.7,29.77,NNE,26,0.0,3.0,34,0.00,,---,0.00,VWS V14.01,2013-03-20 23:15:00,
2013-03-20 19:20:00,43.1,16.7,29.78,SSE,159,1.0,1.0,34,0.00,,---,0.00,VWS V14.01,2013-03-20 23:20:00,
2013-03-20 19:26:00,43.0,16.6,29.78,ENE,57,0.0,0.0,34,0.00,,---,0.00,VWS V14.01,2013-03-20 23:26:00,
2013-03-20 19:31:00,42.8,17.1,29.78,NE,41,2.0,2.0,35,0.00,,---,0.00,VWS V14.01,2013-03-20 23:31:00,
2013-03-20 19:36:00,42.5,17.4,29.78,WSW,249,0.0,0.0,36,0.00,,---,0.00,VWS V14.01,2013-03-20 23:36:00,
2013-03-20 19:41:00,42.2,17.2,29.78,NE,53,0.0,1.0,36,0.00,,---,0.00,VWS V14.01,2013-03-20 23:41:00,
2013-03-20 19:46:00,41.9,17.5,29.78,North,5,0.0,0.0,37,0.00,,---,0.00,VWS V14.01,2013-03-20 23:46:00,
2013-03-20 19:51:00,41.7,18.0,29.78,ESE,123,0.0,1.0,38,0.00,,---,0.00,VWS V14.01,2013-03-20 23:51:00,
2013-03-20 19:56:00,41.4,17.7,29.78,NNE,22,0.0,1.0,38,0.00,,---,0.00,VWS V14.01,2013-03-20 23:56:00,
2013-03-20 20:01:00,41.3,17.6,29.78,ENE,71,2.0,2.0,38,0.00,,---,0.00,VWS V14.01,2013-03-21 00:01:00,
2013-03-20 20:06:00,41.2,18.1,29.78,West,269,2.0,2.0,39,0.00,,---,0.00,VWS V14.01,2013-03-21 00:06:00,
2013-03-20 20:12:00,41.1,18.6,29.79,NNW,337,0.0,0.0,40,0.00,,---,0.00,VWS V14.01,2013-03-21 00:12:00,
2013-03-20 20:17:00,40.9,19.0,29.79,NNE,23,0.0,1.0,41,0.00,,---,0.00,VWS V14.01,2013-03-21 00:17:00,
2013-03-20 20:22:00,40.9,19.0,29.79,NW,311,0.0,0.0,41,0.00,,---,0.00,VWS V14.01,2013-03-21 00:22:00,
2013-03-20 20:27:00,40.5,19.8,29.79,WNW,293,0.0,0.0,43,0.00,,---,0.00,VWS V14.01,2013-03-21 00:27:00,
2013-03-20 20:32:00,40.1,20.5,29.80,WNW,294,1.0,1.0,45,0.00,,---,0.00,VWS V14.01,2013-03-21 00:32:00,
2013-03-20 20:37:00,39.8,20.2,29.80,NNE,25,0.0,2.0,45,0.00,,---,0.00,VWS V14.01,2013-03-21 00:37:00,
2013-03-20 20:42:00,39.6,21.0,29.80,NNW,333,1.0,3.0,47,0.00,,---,0.00,VWS V14.01,2013-03-21 00:42:00,
2013-03-20 20:47:00,39.3,21.8,29.81,West,266,1.0,2.0,49,0.00,,---,0.00,VWS V14.01,2013-03-21 00:47:00,
2013-03-20 20:52:00,38.9,22.3,29.81,NW,306,0.0,2.0,51,0.00,,---,0.00,VWS V14.01,2013-03-21 00:52:00,
2013-03-20 20:57:00,38.5,22.4,29.82,NNE,23,1.0,1.0,52,0.00,,---,0.00,VWS V14.01,2013-03-21 00:57:00,
2013-03-20 21:03:00,38.3,22.7,29.82,SE,124,0.0,0.0,53,0.00,,---,0.00,VWS V14.01,2013-03-21 01:03:00,
2013-03-20 21:08:00,38.1,23.8,29.82,WNW,283,0.0,0.0,56,0.00,,---,0.00,VWS V14.01,2013-03-21 01:08:00,
2013-03-20 21:13:00,37.6,23.3,29.82,WNW,294,0.0,3.0,56,0.00,,---,0.00,VWS V14.01,2013-03-21 01:13:00,
2013-03-20 21:18:00,36.9,23.9,29.82,West,280,2.0,2.0,59,0.00,,---,0.00,VWS V14.01,2013-03-21 01:18:00,
2013-03-20 21:23:00,36.4,23.9,29.82,WNW,296,0.0,1.0,60,0.00,,---,0.00,VWS V14.01,2013-03-21 01:23:00,
2013-03-20 21:29:00,35.9,24.5,29.82,NNE,29,0.0,0.0,63,0.00,,---,0.00,VWS V14.01,2013-03-21 01:29:00,
2013-03-20 21:34:00,35.5,24.5,29.82,NE,46,0.0,0.0,64,0.00,,---,0.00,VWS V14.01,2013-03-21 01:34:00,
2013-03-20 21:39:00,35.2,24.3,29.82,West,280,0.0,0.0,64,0.00,,---,0.00,VWS V14.01,2013-03-21 01:39:00,
2013-03-20 21:44:00,34.8,24.2,29.82,West,280,0.0,1.0,65,0.00,,---,0.00,VWS V14.01,2013-03-21 01:44:00,
2013-03-20 21:49:00,34.4,24.2,29.82,WNW,300,1.0,1.0,66,0.00,,---,0.00,VWS V14.01,2013-03-21 01:49:00,
2013-03-20 21:54:00,34.1,24.3,29.82,West,263,0.0,1.0,67,0.00,,---,0.00,VWS V14.01,2013-03-21 01:54:00,
2013-03-20 21:59:00,34.0,24.6,29.82,WNW,284,0.0,0.0,68,0.00,,---,0.00,VWS V14.01,2013-03-21 01:59:00,
2013-03-20 22:04:00,33.9,25.2,29.83,NW,323,0.0,0.0,70,0.00,,---,0.00,VWS V14.01,2013-03-21 02:04:00,
2013-03-20 22:09:00,33.8,25.1,29.83,NW,323,0.0,0.0,70,0.00,,---,0.00,VWS V14.01,2013-03-21 02:09:00,
2013-03-20 22:14:00,33.9,25.5,29.82,North,359,0.0,1.0,71,0.00,,---,0.00,VWS V14.01,2013-03-21 02:14:00,
2013-03-20 22:19:00,34.0,25.6,29.82,WNW,294,0.0,1.0,71,0.00,,---,0.00,VWS V14.01,2013-03-21 02:19:00,
2013-03-20 22:25:00,34.0,25.6,29.82,WNW,295,0.0,0.0,71,0.00,,---,0.00,VWS V14.01,2013-03-21 02:25:00,
2013-03-20 22:30:00,34.0,25.9,29.82,NNE,20,0.0,0.0,72,0.00,,---,0.00,VWS V14.01,2013-03-21 02:30:00,
2013-03-20 22:35:00,34.0,25.6,29.82,West,280,0.0,0.0,71,0.00,,---,0.00,VWS V14.01,2013-03-21 02:35:00,
2013-03-20 22:40:00,33.9,25.5,29.82,West,280,0.0,1.0,71,0.00,,---,0.00,VWS V14.01,2013-03-21 02:40:00,
2013-03-20 22:45:00,33.7,25.6,29.82,NNW,329,0.0,0.0,72,0.00,,---,0.00,VWS V14.01,2013-03-21 02:45:00,
2013-03-20 22:50:00,33.6,25.9,29.83,WNW,300,0.0,2.0,73,0.00,,---,0.00,VWS V14.01,2013-03-21 02:50:00,
2013-03-20 22:55:00,33.5,25.8,29.83,WNW,298,0.0,0.0,73,0.00,,---,0.00,VWS V14.01,2013-03-21 02:55:00,
2013-03-20 23:00:00,33.6,25.9,29.83,NW,313,0.0,1.0,73,0.00,,---,0.00,VWS V14.01,2013-03-21 03:00:00,
2013-03-20 23:05:00,33.6,26.2,29.82,WNW,286,1.0,1.0,74,0.00,,---,0.00,VWS V14.01,2013-03-21 03:05:00,
2013-03-20 23:10:00,33.7,26.3,29.82,NW,308,0.0,0.0,74,0.00,,---,0.00,VWS V14.01,2013-03-21 03:10:00,
2013-03-20 23:15:00,33.7,26.3,29.82,WNW,294,0.0,1.0,74,0.00,,---,0.00,VWS V14.01,2013-03-21 03:15:00,
2013-03-20 23:20:00,33.7,26.6,29.81,NNW,333,0.0,1.0,75,0.00,,---,0.00,VWS V14.01,2013-03-21 03:20:00,
2013-03-20 23:25:00,33.7,26.6,29.82,WNW,294,1.0,1.0,75,0.00,,---,0.00,VWS V14.01,2013-03-21 03:25:00,
2013-03-20 23:30:00,33.6,26.5,29.82,West,278,0.0,0.0,75,0.00,,---,0.00,VWS V14.01,2013-03-21 03:30:00,
2013-03-20 23:36:00,33.4,26.7,29.82,NW,315,0.0,1.0,76,0.00,,---,0.00,VWS V14.01,2013-03-21 03:36:00,
2013-03-20 23:41:00,33.3,26.6,29.82,WNW,296,0.0,1.0,76,0.00,,---,0.00,VWS V14.01,2013-03-21 03:41:00,
2013-03-20 23:46:00,33.2,26.5,29.82,WNW,302,0.0,1.0,76,0.00,,---,0.00,VWS V14.01,2013-03-21 03:46:00,
2013-03-20 23:51:00,33.1,26.4,29.82,North,350,1.0,2.0,76,0.00,,---,0.00,VWS V14.01,2013-03-21 03:51:00,
2013-03-20 23:56:00,33.0,26.3,29.82,WSW,252,0.0,0.0,76,0.00,,---,0.00,VWS V14.01,2013-03-21 03:56:00,